sensor_id;sensor_type;location;lat;lon;timestamp;temperature;humidity
30206;DHT22;17010;51.306;3.150;2022-08-01T00:01:43;19.30;99.90
30206;DHT22;17010;51.306;3.150;2022-08-01T00:04:10;19.30;99.90
30206;DHT22;17010;51.306;3.150;2022-08-01T00:06:36;19.30;99.90
30206;DHT22;17010;51.306;3.150;2022-08-01T00:09:02;19.30;99.90
30206;DHT22;17010;51.306;3.150;2022-08-01T00:11:28;19.30;99.90
30206;DHT22;17010;51.306;3.150;2022-08-01T00:13:55;19.30;99.90
30206;DHT22;17010;51.306;3.150;2022-08-01T00:16:24;19.40;99.90
30206;DHT22;17010;51.306;3.150;2022-08-01T00:18:53;19.40;99.90
30206;DHT22;17010;51.306;3.150;2022-08-01T00:21:21;19.40;99.90
30206;DHT22;17010;51.306;3.150;2022-08-01T00:23:47;19.40;99.90
30206;DHT22;17010;51.306;3.150;2022-08-01T00:26:14;19.40;99.90
30206;DHT22;17010;51.306;3.150;2022-08-01T00:28:40;19.40;99.90
30206;DHT22;17010;51.306;3.150;2022-08-01T00:31:07;19.30;99.90
30206;DHT22;17010;51.306;3.150;2022-08-01T00:33:36;19.30;99.90
30206;DHT22;17010;51.306;3.150;2022-08-01T00:36:02;19.30;99.90
30206;DHT22;17010;51.306;3.150;2022-08-01T00:38:28;19.40;99.90
30206;DHT22;17010;51.306;3.150;2022-08-01T00:40:54;19.30;99.90
30206;DHT22;17010;51.306;3.150;2022-08-01T00:43:21;19.20;99.90
30206;DHT22;17010;51.306;3.150;2022-08-01T00:45:48;19.20;99.90
30206;DHT22;17010;51.306;3.150;2022-08-01T00:48:14;19.10;99.90
30206;DHT22;17010;51.306;3.150;2022-08-01T00:50:41;19.10;99.90
30206;DHT22;17010;51.306;3.150;2022-08-01T00:53:07;19.10;99.90
30206;DHT22;17010;51.306;3.150;2022-08-01T00:55:33;19.10;99.90
30206;DHT22;17010;51.306;3.150;2022-08-01T00:58:02;19.10;99.90
30206;DHT22;17010;51.306;3.150;2022-08-01T01:00:31;19.10;99.90
30206;DHT22;17010;51.306;3.150;2022-08-01T01:02:59;19.10;99.90
30206;DHT22;17010;51.306;3.150;2022-08-01T01:05:25;19.10;99.90
30206;DHT22;17010;51.306;3.150;2022-08-01T01:13:23;19.30;99.90
30206;DHT22;17010;51.306;3.150;2022-08-01T01:16:21;19.20;99.90
30206;DHT22;17010;51.306;3.150;2022-08-01T01:18:54;19.20;99.90
30206;DHT22;17010;51.306;3.150;2022-08-01T01:26:57;19.30;99.90
30206;DHT22;17010;51.306;3.150;2022-08-01T01:29:43;19.30;99.90
30206;DHT22;17010;51.306;3.150;2022-08-01T01:32:22;19.30;99.90
30206;DHT22;17010;51.306;3.150;2022-08-01T01:34:50;19.30;99.90
30206;DHT22;17010;51.306;3.150;2022-08-01T01:37:18;19.40;99.90
30206;DHT22;17010;51.306;3.150;2022-08-01T01:39:48;19.30;99.90
30206;DHT22;17010;51.306;3.150;2022-08-01T01:42:17;19.30;99.90
30206;DHT22;17010;51.306;3.150;2022-08-01T01:44:48;19.30;99.90
30206;DHT22;17010;51.306;3.150;2022-08-01T01:47:14;19.40;99.90
30206;DHT22;17010;51.306;3.150;2022-08-01T01:49:41;19.50;99.90
30206;DHT22;17010;51.306;3.150;2022-08-01T01:52:12;19.40;99.90
30206;DHT22;17010;51.306;3.150;2022-08-01T01:54:44;19.40;99.90
30206;DHT22;17010;51.306;3.150;2022-08-01T01:57:12;19.30;99.90
30206;DHT22;17010;51.306;3.150;2022-08-01T01:59:38;19.20;99.90
30206;DHT22;17010;51.306;3.150;2022-08-01T02:02:06;19.20;99.90
30206;DHT22;17010;51.306;3.150;2022-08-01T02:04:35;19.10;99.90
30206;DHT22;17010;51.306;3.150;2022-08-01T02:07:03;19.10;99.90
30206;DHT22;17010;51.306;3.150;2022-08-01T02:09:30;19.10;99.90
30206;DHT22;17010;51.306;3.150;2022-08-01T02:11:56;19.20;99.90
30206;DHT22;17010;51.306;3.150;2022-08-01T02:14:26;19.20;99.90
30206;DHT22;17010;51.306;3.150;2022-08-01T02:16:56;19.20;99.90
30206;DHT22;17010;51.306;3.150;2022-08-01T02:19:23;19.30;99.90
30206;DHT22;17010;51.306;3.150;2022-08-01T02:22:02;19.30;99.90
30206;DHT22;17010;51.306;3.150;2022-08-01T02:24:54;19.30;99.90
30206;DHT22;17010;51.306;3.150;2022-08-01T02:27:25;19.30;99.90
30206;DHT22;17010;51.306;3.150;2022-08-01T02:29:58;19.30;99.90
30206;DHT22;17010;51.306;3.150;2022-08-01T02:35:07;19.30;99.90
30206;DHT22;17010;51.306;3.150;2022-08-01T02:37:37;19.20;99.90
30206;DHT22;17010;51.306;3.150;2022-08-01T02:40:04;19.30;99.90
30206;DHT22;17010;51.306;3.150;2022-08-01T02:42:32;19.30;99.90
30206;DHT22;17010;51.306;3.150;2022-08-01T02:45:00;19.30;99.90
30206;DHT22;17010;51.306;3.150;2022-08-01T02:47:28;19.40;99.90
30206;DHT22;17010;51.306;3.150;2022-08-01T02:49:57;19.40;99.90
30206;DHT22;17010;51.306;3.150;2022-08-01T02:52:28;19.40;99.90
30206;DHT22;17010;51.306;3.150;2022-08-01T02:54:55;19.40;99.90
30206;DHT22;17010;51.306;3.150;2022-08-01T02:57:22;19.50;99.90
30206;DHT22;17010;51.306;3.150;2022-08-01T02:59:49;19.50;99.90
30206;DHT22;17010;51.306;3.150;2022-08-01T03:02:21;19.50;99.90
30206;DHT22;17010;51.306;3.150;2022-08-01T03:04:48;19.50;99.90
30206;DHT22;17010;51.306;3.150;2022-08-01T03:07:17;19.50;99.90
30206;DHT22;17010;51.306;3.150;2022-08-01T03:09:45;19.50;99.90
30206;DHT22;17010;51.306;3.150;2022-08-01T03:12:17;19.60;99.90
30206;DHT22;17010;51.306;3.150;2022-08-01T03:14:46;19.60;99.90
30206;DHT22;17010;51.306;3.150;2022-08-01T03:17:15;19.50;99.90
30206;DHT22;17010;51.306;3.150;2022-08-01T03:19:43;19.50;99.90
30206;DHT22;17010;51.306;3.150;2022-08-01T03:22:11;19.40;99.90
30206;DHT22;17010;51.306;3.150;2022-08-01T03:24:39;19.40;99.90
30206;DHT22;17010;51.306;3.150;2022-08-01T03:27:07;19.40;99.90
30206;DHT22;17010;51.306;3.150;2022-08-01T03:29:34;19.40;99.90
30206;DHT22;17010;51.306;3.150;2022-08-01T03:32:02;19.30;99.90
30206;DHT22;17010;51.306;3.150;2022-08-01T03:34:31;19.30;99.90
30206;DHT22;17010;51.306;3.150;2022-08-01T03:37:02;19.30;99.90
30206;DHT22;17010;51.306;3.150;2022-08-01T03:39:34;19.30;99.90
30206;DHT22;17010;51.306;3.150;2022-08-01T03:42:07;19.30;99.90
30206;DHT22;17010;51.306;3.150;2022-08-01T03:44:36;19.30;99.90
30206;DHT22;17010;51.306;3.150;2022-08-01T03:47:06;19.30;99.90
30206;DHT22;17010;51.306;3.150;2022-08-01T03:49:42;19.30;99.90
30206;DHT22;17010;51.306;3.150;2022-08-01T03:52:11;19.30;99.90
30206;DHT22;17010;51.306;3.150;2022-08-01T03:54:46;19.20;99.90
30206;DHT22;17010;51.306;3.150;2022-08-01T03:57:13;19.20;99.90
30206;DHT22;17010;51.306;3.150;2022-08-01T03:59:40;19.20;99.90
30206;DHT22;17010;51.306;3.150;2022-08-01T04:02:07;19.20;99.90
30206;DHT22;17010;51.306;3.150;2022-08-01T04:04:34;19.20;99.90
30206;DHT22;17010;51.306;3.150;2022-08-01T04:07:01;19.20;99.90
30206;DHT22;17010;51.306;3.150;2022-08-01T04:09:32;19.20;99.90
30206;DHT22;17010;51.306;3.150;2022-08-01T04:11:59;19.20;99.90
30206;DHT22;17010;51.306;3.150;2022-08-01T04:14:27;19.20;99.90
30206;DHT22;17010;51.306;3.150;2022-08-01T04:16:54;19.10;99.90
30206;DHT22;17010;51.306;3.150;2022-08-01T04:19:21;19.20;99.90
30206;DHT22;17010;51.306;3.150;2022-08-01T04:21:47;19.20;99.90
30206;DHT22;17010;51.306;3.150;2022-08-01T04:24:15;19.20;99.90
30206;DHT22;17010;51.306;3.150;2022-08-01T04:26:44;19.20;99.90
30206;DHT22;17010;51.306;3.150;2022-08-01T04:29:11;19.20;99.90
30206;DHT22;17010;51.306;3.150;2022-08-01T04:31:39;19.10;99.90
30206;DHT22;17010;51.306;3.150;2022-08-01T04:34:08;19.00;99.90
30206;DHT22;17010;51.306;3.150;2022-08-01T04:36:37;19.00;99.90
30206;DHT22;17010;51.306;3.150;2022-08-01T04:39:04;19.00;99.90
30206;DHT22;17010;51.306;3.150;2022-08-01T04:41:32;19.10;99.90
30206;DHT22;17010;51.306;3.150;2022-08-01T04:43:58;19.10;99.90
30206;DHT22;17010;51.306;3.150;2022-08-01T04:46:29;19.00;99.90
30206;DHT22;17010;51.306;3.150;2022-08-01T04:48:58;19.10;99.90
30206;DHT22;17010;51.306;3.150;2022-08-01T04:51:26;19.10;99.90
30206;DHT22;17010;51.306;3.150;2022-08-01T04:53:53;19.20;99.90
30206;DHT22;17010;51.306;3.150;2022-08-01T04:56:19;19.30;99.90
30206;DHT22;17010;51.306;3.150;2022-08-01T04:58:51;19.30;99.90
30206;DHT22;17010;51.306;3.150;2022-08-01T05:01:40;19.30;99.90
30206;DHT22;17010;51.306;3.150;2022-08-01T05:04:06;19.20;99.90
30206;DHT22;17010;51.306;3.150;2022-08-01T05:06:34;19.20;99.90
30206;DHT22;17010;51.306;3.150;2022-08-01T05:09:01;19.20;99.90
30206;DHT22;17010;51.306;3.150;2022-08-01T05:11:27;19.20;99.90
30206;DHT22;17010;51.306;3.150;2022-08-01T05:13:55;19.30;99.90
30206;DHT22;17010;51.306;3.150;2022-08-01T05:16:22;19.40;99.90
30206;DHT22;17010;51.306;3.150;2022-08-01T05:18:48;19.50;99.90
30206;DHT22;17010;51.306;3.150;2022-08-01T05:21:15;19.60;99.90
30206;DHT22;17010;51.306;3.150;2022-08-01T05:23:42;19.50;99.90
30206;DHT22;17010;51.306;3.150;2022-08-01T05:26:09;19.50;99.90
30206;DHT22;17010;51.306;3.150;2022-08-01T05:28:35;19.50;99.90
30206;DHT22;17010;51.306;3.150;2022-08-01T05:31:02;19.50;99.90
30206;DHT22;17010;51.306;3.150;2022-08-01T05:33:28;19.60;99.90
30206;DHT22;17010;51.306;3.150;2022-08-01T05:35:54;19.60;99.90
30206;DHT22;17010;51.306;3.150;2022-08-01T05:38:21;19.60;99.90
30206;DHT22;17010;51.306;3.150;2022-08-01T05:40:47;19.60;99.90
30206;DHT22;17010;51.306;3.150;2022-08-01T05:43:13;19.60;99.90
30206;DHT22;17010;51.306;3.150;2022-08-01T05:45:41;19.60;99.90
30206;DHT22;17010;51.306;3.150;2022-08-01T05:48:07;19.60;99.90
30206;DHT22;17010;51.306;3.150;2022-08-01T05:50:34;19.60;99.90
30206;DHT22;17010;51.306;3.150;2022-08-01T05:53:00;19.50;99.90
30206;DHT22;17010;51.306;3.150;2022-08-01T05:55:28;19.50;99.90
30206;DHT22;17010;51.306;3.150;2022-08-01T05:57:55;19.50;99.90
30206;DHT22;17010;51.306;3.150;2022-08-01T06:00:24;19.60;99.90
30206;DHT22;17010;51.306;3.150;2022-08-01T06:02:50;19.50;99.90
30206;DHT22;17010;51.306;3.150;2022-08-01T06:05:16;19.50;99.90
30206;DHT22;17010;51.306;3.150;2022-08-01T06:07:42;19.60;99.90
30206;DHT22;17010;51.306;3.150;2022-08-01T06:10:10;19.60;99.90
30206;DHT22;17010;51.306;3.150;2022-08-01T06:12:36;19.70;99.90
30206;DHT22;17010;51.306;3.150;2022-08-01T06:15:06;19.70;99.90
30206;DHT22;17010;51.306;3.150;2022-08-01T06:17:35;19.80;99.90
30206;DHT22;17010;51.306;3.150;2022-08-01T06:20:04;20.00;99.90
30206;DHT22;17010;51.306;3.150;2022-08-01T06:22:31;20.10;99.90
30206;DHT22;17010;51.306;3.150;2022-08-01T06:24:57;20.20;99.90
30206;DHT22;17010;51.306;3.150;2022-08-01T06:27:23;20.20;99.90
30206;DHT22;17010;51.306;3.150;2022-08-01T06:30:10;20.30;99.90
30206;DHT22;17010;51.306;3.150;2022-08-01T06:32:36;20.40;99.90
30206;DHT22;17010;51.306;3.150;2022-08-01T06:35:05;20.60;99.90
30206;DHT22;17010;51.306;3.150;2022-08-01T06:37:32;20.80;99.90
30206;DHT22;17010;51.306;3.150;2022-08-01T06:40:03;21.00;99.90
30206;DHT22;17010;51.306;3.150;2022-08-01T06:42:30;21.20;99.90
30206;DHT22;17010;51.306;3.150;2022-08-01T06:45:04;21.40;99.90
30206;DHT22;17010;51.306;3.150;2022-08-01T06:47:31;21.60;99.90
30206;DHT22;17010;51.306;3.150;2022-08-01T06:50:00;21.70;99.90
30206;DHT22;17010;51.306;3.150;2022-08-01T06:52:29;21.70;99.90
30206;DHT22;17010;51.306;3.150;2022-08-01T06:54:55;21.80;99.90
30206;DHT22;17010;51.306;3.150;2022-08-01T06:57:26;22.00;99.90
30206;DHT22;17010;51.306;3.150;2022-08-01T06:59:54;22.30;99.90
30206;DHT22;17010;51.306;3.150;2022-08-01T07:02:21;22.30;99.90
30206;DHT22;17010;51.306;3.150;2022-08-01T07:04:47;22.30;99.90
30206;DHT22;17010;51.306;3.150;2022-08-01T07:07:13;22.10;99.90
30206;DHT22;17010;51.306;3.150;2022-08-01T07:09:39;22.00;99.90
30206;DHT22;17010;51.306;3.150;2022-08-01T07:12:07;22.00;99.90
30206;DHT22;17010;51.306;3.150;2022-08-01T07:14:34;22.00;99.90
30206;DHT22;17010;51.306;3.150;2022-08-01T07:17:00;21.90;99.90
30206;DHT22;17010;51.306;3.150;2022-08-01T07:19:27;21.90;99.90
30206;DHT22;17010;51.306;3.150;2022-08-01T07:21:53;21.80;99.90
30206;DHT22;17010;51.306;3.150;2022-08-01T07:24:19;22.00;99.90
30206;DHT22;17010;51.306;3.150;2022-08-01T07:26:47;22.10;99.90
30206;DHT22;17010;51.306;3.150;2022-08-01T07:29:13;22.30;99.90
30206;DHT22;17010;51.306;3.150;2022-08-01T07:31:39;22.60;99.90
30206;DHT22;17010;51.306;3.150;2022-08-01T07:34:09;22.60;99.90
30206;DHT22;17010;51.306;3.150;2022-08-01T07:36:37;22.60;99.90
30206;DHT22;17010;51.306;3.150;2022-08-01T07:39:03;22.70;99.90
30206;DHT22;17010;51.306;3.150;2022-08-01T07:41:30;22.40;99.90
30206;DHT22;17010;51.306;3.150;2022-08-01T07:43:56;22.40;99.90
30206;DHT22;17010;51.306;3.150;2022-08-01T07:46:23;22.40;99.90
30206;DHT22;17010;51.306;3.150;2022-08-01T07:48:49;22.50;99.90
30206;DHT22;17010;51.306;3.150;2022-08-01T07:51:15;22.60;99.90
30206;DHT22;17010;51.306;3.150;2022-08-01T07:53:44;22.80;99.90
30206;DHT22;17010;51.306;3.150;2022-08-01T07:56:10;23.20;99.90
30206;DHT22;17010;51.306;3.150;2022-08-01T07:58:38;23.70;99.90
30206;DHT22;17010;51.306;3.150;2022-08-01T08:01:05;23.90;99.90
30206;DHT22;17010;51.306;3.150;2022-08-01T08:03:31;24.30;99.90
30206;DHT22;17010;51.306;3.150;2022-08-01T08:06:00;24.30;99.90
30206;DHT22;17010;51.306;3.150;2022-08-01T08:08:27;24.40;99.90
30206;DHT22;17010;51.306;3.150;2022-08-01T08:10:54;24.20;99.90
30206;DHT22;17010;51.306;3.150;2022-08-01T08:13:20;24.10;99.90
30206;DHT22;17010;51.306;3.150;2022-08-01T08:15:47;24.00;99.90
30206;DHT22;17010;51.306;3.150;2022-08-01T08:18:14;24.00;99.90
30206;DHT22;17010;51.306;3.150;2022-08-01T08:20:40;24.30;99.90
30206;DHT22;17010;51.306;3.150;2022-08-01T08:23:09;24.90;99.90
30206;DHT22;17010;51.306;3.150;2022-08-01T08:25:54;25.30;99.90
30206;DHT22;17010;51.306;3.150;2022-08-01T08:28:20;25.80;99.90
30206;DHT22;17010;51.306;3.150;2022-08-01T08:30:47;26.10;99.90
30206;DHT22;17010;51.306;3.150;2022-08-01T08:33:16;25.90;99.90
30206;DHT22;17010;51.306;3.150;2022-08-01T08:35:42;25.60;99.90
30206;DHT22;17010;51.306;3.150;2022-08-01T08:38:10;25.40;99.90
30206;DHT22;17010;51.306;3.150;2022-08-01T08:40:40;25.20;99.90
30206;DHT22;17010;51.306;3.150;2022-08-01T08:43:07;25.20;99.90
30206;DHT22;17010;51.306;3.150;2022-08-01T08:45:33;25.40;99.90
30206;DHT22;17010;51.306;3.150;2022-08-01T08:48:02;25.30;99.90
30206;DHT22;17010;51.306;3.150;2022-08-01T08:50:30;25.00;99.90
30206;DHT22;17010;51.306;3.150;2022-08-01T08:52:56;25.00;99.90
30206;DHT22;17010;51.306;3.150;2022-08-01T08:55:25;24.90;99.90
30206;DHT22;17010;51.306;3.150;2022-08-01T08:57:52;24.90;99.90
30206;DHT22;17010;51.306;3.150;2022-08-01T09:00:19;24.80;99.90
30206;DHT22;17010;51.306;3.150;2022-08-01T09:02:47;24.80;99.90
30206;DHT22;17010;51.306;3.150;2022-08-01T09:05:14;24.70;99.90
30206;DHT22;17010;51.306;3.150;2022-08-01T09:07:43;24.70;99.90
30206;DHT22;17010;51.306;3.150;2022-08-01T09:10:09;24.50;99.90
30206;DHT22;17010;51.306;3.150;2022-08-01T09:12:39;24.20;99.90
30206;DHT22;17010;51.306;3.150;2022-08-01T09:15:05;24.00;99.90
30206;DHT22;17010;51.306;3.150;2022-08-01T09:17:40;23.90;99.90
30206;DHT22;17010;51.306;3.150;2022-08-01T09:20:21;23.90;99.90
30206;DHT22;17010;51.306;3.150;2022-08-01T09:22:48;23.70;99.90
30206;DHT22;17010;51.306;3.150;2022-08-01T09:25:20;23.70;99.90
30206;DHT22;17010;51.306;3.150;2022-08-01T09:27:46;23.40;99.90
30206;DHT22;17010;51.306;3.150;2022-08-01T09:30:14;23.40;99.90
30206;DHT22;17010;51.306;3.150;2022-08-01T09:32:57;23.30;99.90
30206;DHT22;17010;51.306;3.150;2022-08-01T09:35:27;23.10;99.90
30206;DHT22;17010;51.306;3.150;2022-08-01T09:40:54;23.10;99.90
30206;DHT22;17010;51.306;3.150;2022-08-01T09:43:23;23.00;99.90
30206;DHT22;17010;51.306;3.150;2022-08-01T09:45:52;22.80;99.90
30206;DHT22;17010;51.306;3.150;2022-08-01T09:48:20;22.90;99.90
30206;DHT22;17010;51.306;3.150;2022-08-01T09:50:48;23.00;99.90
30206;DHT22;17010;51.306;3.150;2022-08-01T09:53:15;23.20;99.90
30206;DHT22;17010;51.306;3.150;2022-08-01T09:55:42;23.50;99.90
30206;DHT22;17010;51.306;3.150;2022-08-01T09:58:08;23.90;99.90
30206;DHT22;17010;51.306;3.150;2022-08-01T10:00:37;24.10;99.90
30206;DHT22;17010;51.306;3.150;2022-08-01T10:03:21;24.00;99.90
30206;DHT22;17010;51.306;3.150;2022-08-01T10:05:51;23.70;99.90
30206;DHT22;17010;51.306;3.150;2022-08-01T10:08:19;23.80;99.90
30206;DHT22;17010;51.306;3.150;2022-08-01T10:11:10;24.00;99.90
30206;DHT22;17010;51.306;3.150;2022-08-01T10:13:37;24.10;99.90
30206;DHT22;17010;51.306;3.150;2022-08-01T10:16:06;24.20;99.90
30206;DHT22;17010;51.306;3.150;2022-08-01T10:18:35;24.30;99.90
30206;DHT22;17010;51.306;3.150;2022-08-01T10:21:03;24.30;99.90
30206;DHT22;17010;51.306;3.150;2022-08-01T10:23:39;24.00;99.90
30206;DHT22;17010;51.306;3.150;2022-08-01T10:26:07;24.10;99.90
30206;DHT22;17010;51.306;3.150;2022-08-01T10:28:35;24.10;99.90
30206;DHT22;17010;51.306;3.150;2022-08-01T10:31:02;24.30;99.90
30206;DHT22;17010;51.306;3.150;2022-08-01T10:33:32;24.50;99.90
30206;DHT22;17010;51.306;3.150;2022-08-01T10:36:00;24.50;99.90
30206;DHT22;17010;51.306;3.150;2022-08-01T10:38:29;24.30;99.90
30206;DHT22;17010;51.306;3.150;2022-08-01T10:40:56;24.40;99.90
30206;DHT22;17010;51.306;3.150;2022-08-01T10:43:23;24.50;99.90
30206;DHT22;17010;51.306;3.150;2022-08-01T10:45:51;24.50;99.90
30206;DHT22;17010;51.306;3.150;2022-08-01T10:48:29;24.90;99.90
30206;DHT22;17010;51.306;3.150;2022-08-01T10:51:02;25.10;99.90
30206;DHT22;17010;51.306;3.150;2022-08-01T10:53:31;25.20;99.90
30206;DHT22;17010;51.306;3.150;2022-08-01T10:56:00;25.00;99.90
30206;DHT22;17010;51.306;3.150;2022-08-01T10:58:29;24.80;99.90
30206;DHT22;17010;51.306;3.150;2022-08-01T11:01:26;24.80;99.90
30206;DHT22;17010;51.306;3.150;2022-08-01T11:09:05;25.50;99.90
30206;DHT22;17010;51.306;3.150;2022-08-01T11:14:25;25.20;99.90
30206;DHT22;17010;51.306;3.150;2022-08-01T11:16:52;25.30;99.90
30206;DHT22;17010;51.306;3.150;2022-08-01T11:19:21;25.00;99.90
30206;DHT22;17010;51.306;3.150;2022-08-01T11:27:30;25.10;99.90
30206;DHT22;17010;51.306;3.150;2022-08-01T11:32:47;24.90;99.90
30206;DHT22;17010;51.306;3.150;2022-08-01T11:35:14;24.70;99.90
30206;DHT22;17010;51.306;3.150;2022-08-01T11:37:41;24.50;99.90
30206;DHT22;17010;51.306;3.150;2022-08-01T11:40:21;24.40;99.90
30206;DHT22;17010;51.306;3.150;2022-08-01T11:45:50;24.30;99.90
30206;DHT22;17010;51.306;3.150;2022-08-01T11:48:21;24.20;99.90
30206;DHT22;17010;51.306;3.150;2022-08-01T11:50:51;24.10;99.90
30206;DHT22;17010;51.306;3.150;2022-08-01T11:53:19;24.40;99.90
30206;DHT22;17010;51.306;3.150;2022-08-01T11:55:49;24.90;99.90
30206;DHT22;17010;51.306;3.150;2022-08-01T11:58:23;25.70;99.90
30206;DHT22;17010;51.306;3.150;2022-08-01T12:03:27;26.90;99.90
30206;DHT22;17010;51.306;3.150;2022-08-01T12:05:57;27.30;99.90
30206;DHT22;17010;51.306;3.150;2022-08-01T12:08:30;27.90;99.90
30206;DHT22;17010;51.306;3.150;2022-08-01T12:11:05;28.30;99.90
30206;DHT22;17010;51.306;3.150;2022-08-01T12:13:41;28.00;99.90
30206;DHT22;17010;51.306;3.150;2022-08-01T12:16:10;28.10;99.90
30206;DHT22;17010;51.306;3.150;2022-08-01T12:18:42;27.70;99.90
30206;DHT22;17010;51.306;3.150;2022-08-01T12:21:11;28.00;99.90
30206;DHT22;17010;51.306;3.150;2022-08-01T12:23:40;28.20;99.90
30206;DHT22;17010;51.306;3.150;2022-08-01T12:26:06;28.00;99.90
30206;DHT22;17010;51.306;3.150;2022-08-01T12:28:39;27.90;99.90
30206;DHT22;17010;51.306;3.150;2022-08-01T12:31:06;28.10;99.90
30206;DHT22;17010;51.306;3.150;2022-08-01T12:33:32;28.10;99.90
30206;DHT22;17010;51.306;3.150;2022-08-01T12:36:03;27.90;99.90
30206;DHT22;17010;51.306;3.150;2022-08-01T12:38:30;27.40;99.90
30206;DHT22;17010;51.306;3.150;2022-08-01T12:40:58;27.20;99.90
30206;DHT22;17010;51.306;3.150;2022-08-01T12:43:24;27.10;99.90
30206;DHT22;17010;51.306;3.150;2022-08-01T12:45:53;27.00;99.90
30206;DHT22;17010;51.306;3.150;2022-08-01T12:48:22;26.80;99.90
30206;DHT22;17010;51.306;3.150;2022-08-01T12:50:51;26.60;99.90
30206;DHT22;17010;51.306;3.150;2022-08-01T12:53:18;26.50;99.90
30206;DHT22;17010;51.306;3.150;2022-08-01T12:55:52;26.30;99.90
30206;DHT22;17010;51.306;3.150;2022-08-01T12:58:19;26.30;99.90
30206;DHT22;17010;51.306;3.150;2022-08-01T13:00:48;26.20;99.90
30206;DHT22;17010;51.306;3.150;2022-08-01T13:03:19;26.00;99.90
30206;DHT22;17010;51.306;3.150;2022-08-01T13:05:54;25.80;99.90
30206;DHT22;17010;51.306;3.150;2022-08-01T13:08:32;25.70;99.90
30206;DHT22;17010;51.306;3.150;2022-08-01T13:11:08;25.10;99.90
30206;DHT22;17010;51.306;3.150;2022-08-01T13:13:42;24.90;99.90
30206;DHT22;17010;51.306;3.150;2022-08-01T13:16:11;24.90;99.90
30206;DHT22;17010;51.306;3.150;2022-08-01T13:18:37;24.80;99.90
30206;DHT22;17010;51.306;3.150;2022-08-01T13:23:34;24.90;99.90
30206;DHT22;17010;51.306;3.150;2022-08-01T13:26:03;24.70;99.90
30206;DHT22;17010;51.306;3.150;2022-08-01T13:28:32;24.50;99.90
30206;DHT22;17010;51.306;3.150;2022-08-01T13:31:00;24.50;99.90
30206;DHT22;17010;51.306;3.150;2022-08-01T13:33:40;24.40;99.90
30206;DHT22;17010;51.306;3.150;2022-08-01T13:36:11;24.50;99.90
30206;DHT22;17010;51.306;3.150;2022-08-01T13:38:41;24.50;99.90
30206;DHT22;17010;51.306;3.150;2022-08-01T13:41:26;24.70;99.90
30206;DHT22;17010;51.306;3.150;2022-08-01T13:43:52;24.90;99.90
30206;DHT22;17010;51.306;3.150;2022-08-01T13:46:19;24.90;99.90
30206;DHT22;17010;51.306;3.150;2022-08-01T13:48:45;25.20;99.90
30206;DHT22;17010;51.306;3.150;2022-08-01T13:51:11;25.50;99.90
30206;DHT22;17010;51.306;3.150;2022-08-01T13:53:38;25.50;99.90
30206;DHT22;17010;51.306;3.150;2022-08-01T13:56:04;25.60;99.90
30206;DHT22;17010;51.306;3.150;2022-08-01T13:58:30;25.60;99.90
30206;DHT22;17010;51.306;3.150;2022-08-01T14:00:57;25.40;99.90
30206;DHT22;17010;51.306;3.150;2022-08-01T14:03:23;25.20;99.90
30206;DHT22;17010;51.306;3.150;2022-08-01T14:05:49;25.20;99.90
30206;DHT22;17010;51.306;3.150;2022-08-01T14:08:20;25.20;99.90
30206;DHT22;17010;51.306;3.150;2022-08-01T14:10:48;25.20;99.90
30206;DHT22;17010;51.306;3.150;2022-08-01T14:13:15;25.10;99.90
30206;DHT22;17010;51.306;3.150;2022-08-01T14:15:41;24.90;99.90
30206;DHT22;17010;51.306;3.150;2022-08-01T14:18:07;24.80;99.90
30206;DHT22;17010;51.306;3.150;2022-08-01T14:20:34;24.60;99.90
30206;DHT22;17010;51.306;3.150;2022-08-01T14:23:01;24.40;99.90
30206;DHT22;17010;51.306;3.150;2022-08-01T14:25:31;24.20;99.90
30206;DHT22;17010;51.306;3.150;2022-08-01T14:27:57;24.20;99.90
30206;DHT22;17010;51.306;3.150;2022-08-01T14:30:28;24.20;99.90
30206;DHT22;17010;51.306;3.150;2022-08-01T14:32:59;24.20;99.90
30206;DHT22;17010;51.306;3.150;2022-08-01T14:35:25;24.10;99.90
30206;DHT22;17010;51.306;3.150;2022-08-01T14:37:54;24.00;99.90
30206;DHT22;17010;51.306;3.150;2022-08-01T14:40:20;23.90;99.90
30206;DHT22;17010;51.306;3.150;2022-08-01T14:42:46;23.90;99.90
30206;DHT22;17010;51.306;3.150;2022-08-01T14:45:13;23.80;99.90
30206;DHT22;17010;51.306;3.150;2022-08-01T14:47:43;23.60;99.90
30206;DHT22;17010;51.306;3.150;2022-08-01T14:50:10;23.50;99.90
30206;DHT22;17010;51.306;3.150;2022-08-01T14:52:38;23.40;99.90
30206;DHT22;17010;51.306;3.150;2022-08-01T14:55:10;23.30;99.90
30206;DHT22;17010;51.306;3.150;2022-08-01T14:57:38;23.30;99.90
30206;DHT22;17010;51.306;3.150;2022-08-01T15:00:07;23.30;99.90
30206;DHT22;17010;51.306;3.150;2022-08-01T15:02:36;23.40;99.90
30206;DHT22;17010;51.306;3.150;2022-08-01T15:05:02;23.40;99.90
30206;DHT22;17010;51.306;3.150;2022-08-01T15:07:29;23.40;99.90
30206;DHT22;17010;51.306;3.150;2022-08-01T15:09:55;23.40;99.90
30206;DHT22;17010;51.306;3.150;2022-08-01T15:12:22;23.40;99.90
30206;DHT22;17010;51.306;3.150;2022-08-01T15:14:50;23.40;99.90
30206;DHT22;17010;51.306;3.150;2022-08-01T15:17:22;23.40;99.90
30206;DHT22;17010;51.306;3.150;2022-08-01T15:19:53;23.40;99.90
30206;DHT22;17010;51.306;3.150;2022-08-01T15:22:20;23.20;99.90
30206;DHT22;17010;51.306;3.150;2022-08-01T15:24:50;23.20;99.90
30206;DHT22;17010;51.306;3.150;2022-08-01T15:27:18;23.20;99.90
30206;DHT22;17010;51.306;3.150;2022-08-01T15:29:44;23.20;99.90
30206;DHT22;17010;51.306;3.150;2022-08-01T15:32:14;23.10;99.90
30206;DHT22;17010;51.306;3.150;2022-08-01T15:34:42;23.00;99.90
30206;DHT22;17010;51.306;3.150;2022-08-01T15:37:12;23.00;99.90
30206;DHT22;17010;51.306;3.150;2022-08-01T15:39:41;23.00;99.90
30206;DHT22;17010;51.306;3.150;2022-08-01T15:42:11;23.00;99.90
30206;DHT22;17010;51.306;3.150;2022-08-01T15:44:40;23.00;99.90
30206;DHT22;17010;51.306;3.150;2022-08-01T15:47:09;23.10;99.90
30206;DHT22;17010;51.306;3.150;2022-08-01T15:49:37;23.20;99.90
30206;DHT22;17010;51.306;3.150;2022-08-01T15:52:07;23.30;99.90
30206;DHT22;17010;51.306;3.150;2022-08-01T15:54:34;23.30;99.90
30206;DHT22;17010;51.306;3.150;2022-08-01T15:57:01;23.30;99.90
30206;DHT22;17010;51.306;3.150;2022-08-01T15:59:27;23.20;99.90
30206;DHT22;17010;51.306;3.150;2022-08-01T16:01:58;23.10;99.90
30206;DHT22;17010;51.306;3.150;2022-08-01T16:04:30;23.00;99.90
30206;DHT22;17010;51.306;3.150;2022-08-01T16:06:56;22.90;99.90
30206;DHT22;17010;51.306;3.150;2022-08-01T16:09:30;22.80;99.90
30206;DHT22;17010;51.306;3.150;2022-08-01T16:11:56;22.70;99.90
30206;DHT22;17010;51.306;3.150;2022-08-01T16:14:25;22.80;99.90
30206;DHT22;17010;51.306;3.150;2022-08-01T16:16:51;22.90;99.90
30206;DHT22;17010;51.306;3.150;2022-08-01T16:19:17;23.00;99.90
30206;DHT22;17010;51.306;3.150;2022-08-01T16:21:44;23.10;99.90